createdAt,value
2022-09-23T00:02:36.642Z,5.79
2022-09-23T00:06:39.129Z,5.63
2022-09-23T00:10:40.710Z,5.98
2022-09-23T00:14:42.048Z,5.92
2022-09-23T00:18:44.157Z,5.84
2022-09-23T00:22:46.393Z,5.92
2022-09-23T00:26:47.749Z,5.84
2022-09-23T00:30:49.143Z,5.80
2022-09-23T00:34:51.429Z,5.87
2022-09-23T00:38:54.188Z,5.69
2022-09-23T00:42:55.569Z,5.61
2022-09-23T00:46:57.173Z,5.54
2022-09-23T00:50:58.580Z,5.67
2022-09-23T00:55:02.766Z,5.61
2022-09-23T00:59:06.534Z,5.23
2022-09-23T01:03:08.292Z,5.44
2022-09-23T01:07:09.717Z,5.26
2022-09-23T01:11:34.683Z,5.06
2022-09-23T01:15:45.991Z,5.08
2022-09-23T01:20:18.019Z,5.08
2022-09-23T01:25:01.594Z,5.21
2022-09-23T01:29:21.810Z,5.23
2022-09-23T01:33:38.214Z,5.29
2022-09-23T01:37:52.442Z,5.19
2022-09-23T01:42:02.694Z,5.21
2022-09-23T01:46:11.157Z,5.08
2022-09-23T01:50:36.572Z,5.03
2022-09-23T01:54:43.232Z,5.01
2022-09-23T01:58:54.973Z,5.01
2022-09-23T02:03:01.427Z,5.08
2022-09-23T02:07:10.074Z,4.97
2022-09-23T02:11:16.241Z,4.93
2022-09-23T02:15:35.165Z,4.85
2022-09-23T02:19:47.816Z,4.78
2022-09-23T02:23:53.346Z,4.93
2022-09-23T02:28:14.810Z,4.81
2022-09-23T02:32:48.658Z,4.81
2022-09-23T02:37:11.625Z,4.96
2022-09-23T02:41:23.008Z,4.85
2022-09-23T02:45:25.007Z,4.85
2022-09-23T02:49:29.714Z,4.96
2022-09-23T02:53:34.931Z,4.90
2022-09-23T02:57:36.357Z,4.73
2022-09-23T03:01:47.634Z,4.87
2022-09-23T03:05:56.014Z,4.82
2022-09-23T03:10:09.650Z,4.94
2022-09-23T03:14:27.998Z,4.99
2022-09-23T03:18:36.576Z,4.82
2022-09-23T03:22:47.136Z,4.66
2022-09-23T03:26:49.862Z,4.65
2022-09-23T03:30:53.011Z,4.60
2022-09-23T03:34:58.399Z,4.73
2022-09-23T03:39:08.466Z,4.84
2022-09-23T03:43:13.271Z,4.88
2022-09-23T03:47:16.655Z,4.72
2022-09-23T03:51:22.536Z,4.77
2022-09-23T03:55:24.040Z,4.44
2022-09-23T03:59:26.593Z,4.56
2022-09-23T04:03:29.258Z,4.67
2022-09-23T04:07:30.753Z,4.28
2022-09-23T04:11:32.179Z,4.26
2022-09-23T04:15:33.589Z,4.50
2022-09-23T04:19:35.234Z,4.46
2022-09-23T04:23:36.827Z,4.46
2022-09-23T04:27:38.853Z,4.40
2022-09-23T04:31:40.526Z,4.11
2022-09-23T04:35:43.509Z,4.29
2022-09-23T04:39:45.001Z,4.26
2022-09-23T04:43:46.815Z,4.30
2022-09-23T04:47:48.325Z,4.13
2022-09-23T04:51:49.784Z,4.30
2022-09-23T04:55:52.266Z,4.22
2022-09-23T04:59:56.942Z,4.17
2022-09-23T05:04:02.572Z,4.26
2022-09-23T05:08:04.083Z,4.29
2022-09-23T05:12:05.931Z,4.15
2022-09-23T05:16:10.888Z,4.09
2022-09-23T05:20:13.164Z,4.35
2022-09-23T05:24:14.887Z,4.35
2022-09-23T05:28:20.221Z,4.49
2022-09-23T05:32:21.975Z,4.47
2022-09-23T05:36:24.405Z,4.48
2022-09-23T05:40:25.975Z,4.30
2022-09-23T05:44:27.541Z,4.36
2022-09-23T05:48:33.171Z,4.35
2022-09-23T05:52:34.849Z,4.56
2022-09-23T05:56:37.349Z,4.61
2022-09-23T06:00:40.914Z,4.92
2022-09-23T06:04:43.031Z,5.21
2022-09-23T06:08:45.683Z,5.45
2022-09-23T06:12:47.150Z,5.58
2022-09-23T06:16:48.667Z,5.86
2022-09-23T06:20:50.108Z,6.05
2022-09-23T06:24:51.555Z,6.13
2022-09-23T06:28:53.141Z,6.30
2022-09-23T06:32:57.102Z,6.58
2022-09-23T06:37:01.976Z,6.74
2022-09-23T06:41:12.005Z,6.89
2022-09-23T06:45:14.987Z,7.11
2022-09-23T06:49:16.561Z,7.26
2022-09-23T06:53:18.176Z,7.39
2022-09-23T06:57:19.773Z,7.65
2022-09-23T07:01:22.337Z,7.89
2022-09-23T07:05:24.120Z,8.07
2022-09-23T07:09:25.971Z,8.17
2022-09-23T07:13:29.401Z,8.49
2022-09-23T07:17:31.105Z,8.13
2022-09-23T07:21:32.541Z,8.29
2022-09-23T07:25:34.207Z,8.00
2022-09-23T07:29:46.595Z,8.09
2022-09-23T07:33:49.765Z,8.43
2022-09-23T07:37:51.231Z,8.57
2022-09-23T07:41:52.698Z,8.86
2022-09-23T07:45:54.525Z,9.00
2022-09-23T07:49:55.953Z,9.31
2022-09-23T07:53:57.403Z,9.59
2022-09-23T07:57:58.826Z,9.83
2022-09-23T08:02:00.497Z,10.31
2022-09-23T08:06:13.078Z,10.49
2022-09-23T08:10:14.662Z,10.74
2022-09-23T08:14:17.917Z,10.72
2022-09-23T08:18:19.484Z,11.24
2022-09-23T08:22:20.969Z,11.42
2022-09-23T08:26:22.670Z,11.68
2022-09-23T08:30:24.161Z,12.35
2022-09-23T08:34:27.820Z,12.69
2022-09-23T08:38:29.968Z,12.89
2022-09-23T08:42:33.686Z,12.82
2022-09-23T08:46:41.473Z,12.87
2022-09-23T08:50:54.718Z,13.44
2022-09-23T08:54:56.464Z,13.16
2022-09-23T08:59:14.801Z,13.59
2022-09-23T09:03:34.117Z,13.81
2022-09-23T09:07:40.072Z,14.02
2022-09-23T09:11:48.531Z,13.89
2022-09-23T09:16:05.715Z,13.94
2022-09-23T09:20:19.012Z,14.54
2022-09-23T09:24:34.059Z,14.84
2022-09-23T09:28:41.687Z,14.94
2022-09-23T09:33:00.700Z,15.43
2022-09-23T09:37:08.928Z,14.77
2022-09-23T09:41:18.240Z,15.17
2022-09-23T09:45:46.589Z,15.83
2022-09-23T09:50:01.961Z,16.02
2022-09-23T09:54:22.110Z,15.43
2022-09-23T09:58:25.578Z,15.94
2022-09-23T10:02:30.631Z,16.61
2022-09-23T10:06:34.733Z,16.62
2022-09-23T10:10:36.150Z,16.29
2022-09-23T10:14:37.727Z,16.54
2022-09-23T10:18:49.971Z,16.60
2022-09-23T10:22:51.529Z,17.34
2022-09-23T10:27:01.591Z,17.12
2022-09-23T10:31:15.810Z,17.57
2022-09-23T10:35:21.959Z,17.90
2022-09-23T10:39:43.011Z,17.48
2022-09-23T10:44:09.844Z,16.31
2022-09-23T10:48:38.419Z,17.31
2022-09-23T10:53:05.044Z,18.15
2022-09-23T10:57:41.111Z,18.19
2022-09-23T11:01:48.965Z,17.38
2022-09-23T11:06:22.885Z,17.60
2022-09-23T11:10:53.007Z,16.61
2022-09-23T11:14:54.353Z,17.92
2022-09-23T11:19:02.122Z,17.58
2022-09-23T11:23:34.286Z,17.63
2022-09-23T11:28:13.030Z,17.70
2022-09-23T11:32:32.271Z,17.60
2022-09-23T11:36:46.995Z,18.41
2022-09-23T11:40:54.755Z,17.70
2022-09-23T11:45:02.158Z,18.50
2022-09-23T11:49:09.394Z,18.48
2022-09-23T11:53:42.582Z,18.25
2022-09-23T11:57:49.483Z,18.21
2022-09-23T12:02:20.368Z,18.00
2022-09-23T12:06:27.955Z,18.54
2022-09-23T12:10:54.719Z,19.06
2022-09-23T12:15:34.389Z,19.12
2022-09-23T12:19:57.741Z,20.12
2022-09-23T12:24:32.013Z,19.31
2022-09-23T12:28:40.863Z,19.50
2022-09-23T12:32:43.209Z,19.26
2022-09-23T12:36:45.738Z,19.80
2022-09-23T12:40:48.012Z,19.96
2022-09-23T12:44:50.559Z,20.40
2022-09-23T12:48:57.979Z,18.30
2022-09-23T12:53:34.350Z,19.59
2022-09-23T12:57:35.722Z,20.61
2022-09-23T13:01:38.495Z,20.80
2022-09-23T13:06:10.314Z,20.88
2022-09-23T13:10:22.733Z,19.46
2022-09-23T13:14:27.584Z,20.39
2022-09-23T13:18:50.049Z,20.05
2022-09-23T13:22:54.416Z,19.36
2022-09-23T13:27:06.343Z,19.68
2022-09-23T13:31:14.938Z,18.66
2022-09-23T13:35:24.506Z,18.91
2022-09-23T13:39:27.763Z,18.44
2022-09-23T13:43:55.308Z,18.36
2022-09-23T13:48:13.530Z,19.54
2022-09-23T13:52:27.482Z,19.73
2022-09-23T13:56:32.249Z,19.63
2022-09-23T14:00:36.779Z,19.80
2022-09-23T14:04:38.667Z,19.23
2022-09-23T14:08:43.941Z,19.84
2022-09-23T14:12:47.443Z,18.45
2022-09-23T14:16:51.316Z,19.53
2022-09-23T14:20:52.784Z,20.04
2022-09-23T14:24:55.708Z,20.84
2022-09-23T14:28:57.194Z,19.51
2022-09-23T14:32:59.379Z,19.30
2022-09-23T14:37:33.189Z,19.59
2022-09-23T14:41:41.267Z,18.91
2022-09-23T14:45:47.327Z,18.50
2022-09-23T14:50:10.464Z,18.84
2022-09-23T14:54:30.368Z,18.65
2022-09-23T14:58:46.961Z,18.30
2022-09-23T15:03:00.082Z,18.63
2022-09-23T15:07:08.987Z,17.76
2022-09-23T15:11:11.095Z,17.73
2022-09-23T15:15:14.830Z,17.72
2022-09-23T15:19:19.885Z,17.94
2022-09-23T15:23:41.552Z,17.66
2022-09-23T15:27:55.759Z,17.44
2022-09-23T15:31:57.892Z,17.62
2022-09-23T15:35:59.369Z,17.37
2022-09-23T15:40:00.934Z,17.26
2022-09-23T15:44:13.053Z,17.07
2022-09-23T15:48:17.869Z,16.86
2022-09-23T15:52:22.676Z,16.89
2022-09-23T15:56:26.905Z,15.94
2022-09-23T16:00:28.561Z,15.92
2022-09-23T16:04:31.377Z,15.79
2022-09-23T16:08:33.272Z,15.58
2022-09-23T16:12:34.969Z,15.66
2022-09-23T16:16:36.487Z,15.64
2022-09-23T16:20:42.233Z,15.09
2022-09-23T16:24:43.973Z,15.34
2022-09-23T16:28:46.996Z,15.15
2022-09-23T16:32:48.657Z,15.09
2022-09-23T16:36:50.159Z,15.01
2022-09-23T16:40:51.776Z,14.88
2022-09-23T16:44:53.264Z,14.69
2022-09-23T16:48:56.247Z,14.50
2022-09-23T16:52:57.880Z,14.36
2022-09-23T16:56:59.413Z,14.53
2022-09-23T17:01:19.466Z,14.46
2022-09-23T17:05:20.899Z,14.54
2022-09-23T17:09:24.863Z,14.27
2022-09-23T17:13:29.476Z,14.19
2022-09-23T17:17:36.971Z,13.96
2022-09-23T17:21:38.874Z,13.67
2022-09-23T17:25:40.253Z,13.41
2022-09-23T17:29:41.648Z,13.17
2022-09-23T17:33:43.480Z,13.15
2022-09-23T17:37:46.700Z,12.82
2022-09-23T17:41:48.156Z,12.99
2022-09-23T17:45:49.870Z,13.04
2022-09-23T17:49:51.918Z,13.05
2022-09-23T17:53:53.365Z,12.83
2022-09-23T17:57:54.880Z,12.59
2022-09-23T18:01:56.475Z,12.64
2022-09-23T18:06:17.092Z,12.83
2022-09-23T18:10:18.525Z,13.09
2022-09-23T18:14:22.130Z,13.05
2022-09-23T18:18:23.525Z,13.09
2022-09-23T18:22:24.920Z,13.03
2022-09-23T18:26:30.187Z,12.87
2022-09-23T18:30:32.171Z,12.91
2022-09-23T18:34:33.630Z,12.72
2022-09-23T18:38:35.559Z,12.85
2022-09-23T18:42:40.317Z,12.91
2022-09-23T18:46:45.536Z,12.89
2022-09-23T18:50:48.834Z,13.03
2022-09-23T18:54:54.962Z,12.81
2022-09-23T18:58:56.653Z,12.86
2022-09-23T19:02:58.558Z,12.83
2022-09-23T19:07:00.260Z,12.66
2022-09-23T19:11:03.267Z,12.54
2022-09-23T19:15:04.961Z,12.46
2022-09-23T19:19:07.114Z,11.96
2022-09-23T19:23:08.495Z,11.96
2022-09-23T19:27:09.870Z,11.91
2022-09-23T19:31:13.995Z,12.06
2022-09-23T19:35:16.050Z,11.96
2022-09-23T19:39:23.286Z,11.67
2022-09-23T19:43:25.121Z,11.90
2022-09-23T19:47:26.503Z,11.54
2022-09-23T19:51:28.289Z,11.57
2022-09-23T19:55:30.228Z,11.57
2022-09-23T19:59:31.673Z,11.42
2022-09-23T20:03:33.409Z,11.19
2022-09-23T20:07:34.867Z,11.07
2022-09-23T20:11:36.371Z,11.34
2022-09-23T20:15:37.946Z,11.22
2022-09-23T20:19:40.519Z,11.07
2022-09-23T20:23:42.504Z,11.04
2022-09-23T20:27:49.482Z,11.00
2022-09-23T20:31:51.152Z,10.89
2022-09-23T20:35:53.619Z,10.77
2022-09-23T20:39:55.112Z,10.67
2022-09-23T20:44:00.602Z,10.58
2022-09-23T20:48:03.246Z,10.76
2022-09-23T20:52:04.707Z,10.70
2022-09-23T20:56:06.592Z,10.74
2022-09-23T21:00:08.865Z,10.78
2022-09-23T21:04:10.649Z,10.56
2022-09-23T21:08:12.511Z,10.49
2022-09-23T21:12:13.879Z,10.54
2022-09-23T21:16:17.127Z,10.67
2022-09-23T21:20:18.659Z,10.44
2022-09-23T21:28:43.976Z,10.47
2022-09-23T21:32:45.356Z,10.48
2022-09-23T21:36:48.085Z,10.61
2022-09-23T21:40:56.731Z,10.63
2022-09-23T21:44:58.188Z,10.63
2022-09-23T21:49:01.971Z,10.68
2022-09-23T21:53:03.385Z,10.53
2022-09-23T21:57:04.830Z,10.77
2022-09-23T22:01:11.945Z,10.73
2022-09-23T22:05:13.462Z,10.79
2022-09-23T22:09:20.283Z,10.86
2022-09-23T22:13:21.906Z,10.91
2022-09-23T22:17:23.670Z,10.88
2022-09-23T22:21:26.912Z,10.66
2022-09-23T22:25:28.861Z,10.62
2022-09-23T22:29:48.847Z,10.75
2022-09-23T22:33:50.618Z,10.67
2022-09-23T22:37:52.023Z,10.71
2022-09-23T22:41:53.653Z,10.59
2022-09-23T22:45:55.038Z,10.77
2022-09-23T22:49:56.511Z,10.34
2022-09-23T22:53:58.053Z,10.16
2022-09-23T22:58:10.576Z,10.32
2022-09-23T23:02:23.938Z,10.34
2022-09-23T23:06:25.352Z,10.53
2022-09-23T23:10:27.223Z,10.34
2022-09-23T23:14:31.270Z,10.47
2022-09-23T23:18:35.290Z,10.29
2022-09-23T23:22:36.677Z,10.31
2022-09-23T23:26:38.077Z,10.20
2022-09-23T23:30:39.461Z,10.34
2022-09-23T23:34:40.826Z,10.25
2022-09-23T23:38:44.354Z,9.96
2022-09-23T23:42:45.765Z,10.14
2022-09-23T23:46:48.107Z,10.07
2022-09-23T23:50:54.705Z,10.07
2022-09-23T23:54:56.177Z,9.82
2022-09-23T23:58:59.590Z,9.77
